Ocean Titan — WDJ3639 — position and weather

sailwx.info

Track history (hours):
 
Tides and Currents Weather Stations Pressure Air Temp Water Temp Dewpoint Dewpoint Depression Visibility Wind Speed Wind Dir Waves Ship Positions

Oceanographic research ship Ocean Titan (USA)

Owner: Ocean Titan Holding, LLC, Seattle, WA. More information available from US FCC via Universal Licensing System and Coast Guard Vessel Documentation Center.

Last reported at 2020-Sep-24 07:30 UTC. Time now 2020-Sep-24 08:44 UTC.
Position N 48°23' W 124°37'.

Length 60 m; draft 4.7 m.

Type: . MMSI: 369228000.

Date/timePositionNaut miles runAvg speedWind from/ knotsBaromVisibWave heightAir tempDewpointWater temp
2020-Sep-24 07:30N 48°23' W 124°37'0 0.0
2020-Sep-24 06:30N 48°23' W 124°37'0 0.0
2020-Sep-24 05:30N 48°23' W 124°37'0 0.0
2020-Sep-24 03:00N 48°23' W 124°37'0 0.0
2020-Sep-24 02:30N 48°23' W 124°37'0 0.0
2020-Sep-24 02:00N 48°23' W 124°37'0 0.0
2020-Sep-23 21:30N 48°23' W 124°37'0 0.1
2020-Sep-23 20:00N 48°23' W 124°37'0 0.0
2020-Sep-23 19:25N 48°23' W 124°37'0 0.0
2020-Sep-23 19:24N 48°23' W 124°37'0 0.0
2020-Sep-23 19:00N 48°23' W 124°37'0 0.0
2020-Sep-23 15:00N 48°23' W 124°37'0 0.0
2020-Sep-23 14:00N 48°23' W 124°37'4 1.9
2020-Sep-23 12:00N 48°25' W 124°41'7 7.0
2020-Sep-23 11:00N 48°25' W 124°52'4 7.9
2020-Sep-23 10:30N 48°23' W 124°58'2 0.2
2020-Sep-23 01:58N 48°23' W 125°01'1 0.4
2020-Sep-22 23:00N 48°24' W 125°01'  
2020-Sep-16 06:56N 48°18' W 125°06'6 1.5
2020-Sep-16 02:58N 48°22' W 125°00'1 0.5
2020-Sep-16 00:00N 48°23' W 124°59'2 2.2
2020-Sep-15 23:16N 48°25' W 125°01'3 3.4
2020-Sep-15 22:29N 48°27' W 124°58'1 0.5
2020-Sep-15 20:30N 48°26' W 124°58'2 0.3
2020-Sep-15 13:58N 48°24' W 124°56'2 3.3
2020-Sep-15 13:30N 48°23' W 124°59'0 0.2
2020-Sep-15 11:55N 48°24' W 124°58'1 0.3
2020-Sep-15 09:30N 48°24' W 124°58'3 1.3
2020-Sep-15 07:29N 48°22' W 125°00'1 0.3
2020-Sep-15 05:30N 48°23' W 124°60'1 0.3
2020-Sep-15 03:00N 48°23' W 124°59'1 2.5
2020-Sep-15 02:30N 48°24' W 124°60'1 0.2
2020-Sep-14 19:49N 48°23' W 124°60'0 0.1
2020-Sep-14 14:17N 48°23' W 125°00'7 4.2
2020-Sep-14 12:30N 48°26' W 124°50'2610.4
2020-Sep-14 10:00N 48°17' W 124°13'  
Track history (hours):
 
Tides and Currents Weather Stations Pressure Air Temp Water Temp Dewpoint Dewpoint Depression Visibility Wind Speed Wind Dir Waves Ship Positions

Oceanographic research ship Ocean Titan (USA)

Owner: Ocean Titan Holding, LLC, Seattle, WA. More information available from US FCC via Universal Licensing System and Coast Guard Vessel Documentation Center.

Last reported at 2020-Sep-24 07:30 UTC. Time now 2020-Sep-24 08:44 UTC.
Position N 48°23' W 124°37'.

Length 60 m; draft 4.7 m.

Type: . MMSI: 369228000.

Date/timePositionNaut miles runAvg speedWind from/ knotsBaromVisibWave heightAir tempDewpointWater temp
2020-Sep-24 07:30N 48°23' W 124°37'0 0.0
2020-Sep-24 06:30N 48°23' W 124°37'0 0.0
2020-Sep-24 05:30N 48°23' W 124°37'0 0.0
2020-Sep-24 03:00N 48°23' W 124°37'0 0.0
2020-Sep-24 02:30N 48°23' W 124°37'0 0.0
2020-Sep-24 02:00N 48°23' W 124°37'0 0.0
2020-Sep-23 21:30N 48°23' W 124°37'0 0.1
2020-Sep-23 20:00N 48°23' W 124°37'0 0.0
2020-Sep-23 19:25N 48°23' W 124°37'0 0.0
2020-Sep-23 19:24N 48°23' W 124°37'0 0.0
2020-Sep-23 19:00N 48°23' W 124°37'0 0.0
2020-Sep-23 15:00N 48°23' W 124°37'0 0.0
2020-Sep-23 14:00N 48°23' W 124°37'4 1.9
2020-Sep-23 12:00N 48°25' W 124°41'7 7.0
2020-Sep-23 11:00N 48°25' W 124°52'4 7.9
2020-Sep-23 10:30N 48°23' W 124°58'2 0.2
2020-Sep-23 01:58N 48°23' W 125°01'1 0.4
2020-Sep-22 23:00N 48°24' W 125°01'  
2020-Sep-16 06:56N 48°18' W 125°06'6 1.5
2020-Sep-16 02:58N 48°22' W 125°00'1 0.5
2020-Sep-16 00:00N 48°23' W 124°59'2 2.2
2020-Sep-15 23:16N 48°25' W 125°01'3 3.4
2020-Sep-15 22:29N 48°27' W 124°58'1 0.5
2020-Sep-15 20:30N 48°26' W 124°58'2 0.3
2020-Sep-15 13:58N 48°24' W 124°56'2 3.3
2020-Sep-15 13:30N 48°23' W 124°59'0 0.2
2020-Sep-15 11:55N 48°24' W 124°58'1 0.3
2020-Sep-15 09:30N 48°24' W 124°58'3 1.3
2020-Sep-15 07:29N 48°22' W 125°00'1 0.3
2020-Sep-15 05:30N 48°23' W 124°60'1 0.3
2020-Sep-15 03:00N 48°23' W 124°59'1 2.5
2020-Sep-15 02:30N 48°24' W 124°60'1 0.2
2020-Sep-14 19:49N 48°23' W 124°60'0 0.1
2020-Sep-14 14:17N 48°23' W 125°00'7 4.2
2020-Sep-14 12:30N 48°26' W 124°50'2610.4
2020-Sep-14 10:00N 48°17' W 124°13'  

Dump ship's entire track history